LOS ANGELES INTL

KLAX (LAX)
Los Angeles, California
Towered

Vatsim Metar:
KLAX 282253Z 25009KT 10SM FEW150 19/06 A3007 RMK AO2 SLP181 T01890056

No ATC Online

Traffic

Inbound:
Ident
Type
Name
ETA
Phase
DAL58
A320
Hazem esam elsesy HECA
23:19 Z
Descent
SWA1020
B738
Jonathan
23:20 Z
Descent
UAL403
B738
Pedro Ribeiro LPPR
23:46 Z
Cruse
UPS995
B748
Eric Porter KSMF
00:09 Z
Cruse
NKS628
A320
Jackson Kane KORD
00:35 Z
Cruse
WJA1514
B789
1142159 KORD
00:27 Z
Cruse
AAL726
A332
David Roark KABQ
00:51 Z
Cruse
AAL285
A321
Wyatt Keith KIAD
04:24 Z
Cruse
TZP23
B788
Evan Santoso
04:08 Z
Descent

Outbound:
Ident
Type
Name
Destination
Phase
AAL2883
B789
Cam MacDonald CYYZ
KMIA
Climb